Time;durP1;ratioP1;P1;durP2;ratioP2;P2;SDS_P1;SDS_P2;PMS_P1;PMS_P2;Temp;Humidity;BMP_temperature;BMP_pressure;BME280_temperature;BME280_humidity;BME280_pressure;Samples;Min_cycle;Max_cycle;Signal;HPM_P1;HPM_P2
2023/11/13 00:00:15;;;;;;;0.30;0.20;;;6.80;99.90;;;;;;5106732;28;20171;-86
2023/11/13 00:02:41;;;;;;;0.40;0.30;;;6.80;99.90;;;;;;5104724;28;20464;-77
2023/11/13 00:05:07;;;;;;;0.30;0.27;;;6.80;99.90;;;;;;5105023;28;20431;-88
2023/11/13 00:07:33;;;;;;;0.30;0.20;;;6.80;99.90;;;;;;5106177;28;20396;-77
2023/11/13 00:09:59;;;;;;;0.30;0.30;;;6.80;99.90;;;;;;5106704;28;20207;-77
2023/11/13 00:12:25;;;;;;;0.30;0.20;;;6.80;99.90;;;;;;5107220;28;20453;-86
2023/11/13 00:14:50;;;;;;;0.30;0.20;;;6.80;99.90;;;;;;5105802;28;20983;-78
2023/11/13 00:17:17;;;;;;;0.30;0.20;;;6.80;99.90;;;;;;5104815;28;20619;-77
2023/11/13 00:19:47;;;;;;;0.30;0.20;;;6.80;99.90;;;;;;5105743;28;20227;-77
2023/11/13 00:22:12;;;;;;;0.30;0.20;;;6.80;99.90;;;;;;5104719;28;20290;-87
2023/11/13 00:24:39;;;;;;;0.30;0.20;;;6.80;99.90;;;;;;5107238;28;20700;-87
2023/11/13 00:27:05;;;;;;;0.30;0.20;;;6.80;99.90;;;;;;5106310;28;20163;-86
2023/11/13 00:29:31;;;;;;;0.30;0.20;;;6.80;99.90;;;;;;5107966;28;20489;-77
2023/11/13 00:31:56;;;;;;;0.30;0.20;;;6.90;99.90;;;;;;5109108;28;20719;-84
2023/11/13 00:34:22;;;;;;;0.30;0.20;;;6.90;99.90;;;;;;5111322;28;20271;-77
2023/11/13 00:36:51;;;;;;;0.30;0.20;;;6.90;99.90;;;;;;5111019;28;20188;-78
2023/11/13 00:39:18;;;;;;;0.30;0.20;;;6.90;99.90;;;;;;5110948;28;20387;-77
2023/11/13 00:41:44;;;;;;;0.30;0.20;;;6.90;99.90;;;;;;5110431;28;20179;-88
2023/11/13 00:44:10;;;;;;;0.30;0.30;;;7.00;99.90;;;;;;5109857;28;20713;-77
2023/11/13 00:46:35;;;;;;;1.03;1.03;;;7.00;99.90;;;;;;5108308;28;20428;-77
2023/11/13 00:49:01;;;;;;;0.30;0.20;;;7.00;99.90;;;;;;5110480;28;20928;-87
2023/11/13 00:51:26;;;;;;;0.30;0.30;;;7.10;99.90;;;;;;5110462;28;20317;-87
2023/11/13 00:53:52;;;;;;;0.30;0.20;;;7.10;99.90;;;;;;5108085;28;20223;-77
2023/11/13 00:56:18;;;;;;;0.30;0.20;;;7.10;99.90;;;;;;5108369;28;20215;-77
2023/11/13 00:58:44;;;;;;;0.93;0.90;;;7.20;99.90;;;;;;5108112;28;20435;-88
2023/11/13 01:01:13;;;;;;;0.30;0.20;;;7.20;99.90;;;;;;5109381;28;20439;-79
2023/11/13 01:03:39;;;;;;;0.30;0.30;;;7.10;99.90;;;;;;5107858;28;20218;-87
2023/11/13 01:06:05;;;;;;;0.30;0.20;;;7.10;99.90;;;;;;5108413;28;20183;-77
2023/11/13 01:08:31;;;;;;;0.30;0.20;;;7.10;99.90;;;;;;5111740;28;20652;-88
2023/11/13 01:10:57;;;;;;;0.30;0.20;;;7.00;99.90;;;;;;5110787;28;20296;-88
2023/11/13 01:13:23;;;;;;;0.30;0.20;;;7.00;99.90;;;;;;5108111;28;20199;-77
2023/11/13 01:15:49;;;;;;;0.30;0.20;;;7.00;99.90;;;;;;5108381;28;20613;-88
2023/11/13 01:18:18;;;;;;;0.30;0.20;;;7.00;99.90;;;;;;5107523;28;20222;-88
2023/11/13 01:20:45;;;;;;;0.30;0.20;;;7.00;99.90;;;;;;5109393;28;20188;-86
2023/11/13 01:23:11;;;;;;;0.30;0.20;;;7.00;99.90;;;;;;5108825;28;20646;-77
2023/11/13 01:25:37;;;;;;;0.60;0.60;;;7.00;99.90;;;;;;5107034;28;20191;-88
2023/11/13 01:28:03;;;;;;;0.30;0.20;;;7.00;99.90;;;;;;5107509;28;20191;-88
2023/11/13 01:30:28;;;;;;;0.30;0.20;;;7.00;99.90;;;;;;5109773;28;20485;-77
2023/11/13 01:32:54;;;;;;;0.30;0.20;;;7.00;99.90;;;;;;5109678;28;20448;-78
2023/11/13 01:35:20;;;;;;;0.30;0.20;;;7.00;99.90;;;;;;5108940;28;20204;-77
2023/11/13 01:37:46;;;;;;;0.30;0.20;;;7.00;99.90;;;;;;5108318;28;20218;-89
2023/11/13 01:40:12;;;;;;;0.30;0.20;;;7.00;99.90;;;;;;5108229;28;20263;-77
2023/11/13 01:42:38;;;;;;;0.30;0.20;;;7.00;99.90;;;;;;5107067;28;20519;-79
2023/11/13 01:45:06;;;;;;;0.35;0.35;;;7.00;99.90;;;;;;5108646;28;20172;-77
2023/11/13 01:47:32;;;;;;;0.30;0.20;;;7.00;99.90;;;;;;5107096;28;20182;-77
2023/11/13 01:49:58;;;;;;;0.30;0.20;;;6.90;99.90;;;;;;5106735;28;20287;-88
2023/11/13 01:52:26;;;;;;;0.30;0.20;;;7.00;99.90;;;;;;5107238;28;20229;-87
2023/11/13 01:54:53;;;;;;;0.30;0.20;;;6.90;99.90;;;;;;5108366;28;20230;-88
2023/11/13 01:57:18;;;;;;;0.47;0.47;;;7.00;99.90;;;;;;5106886;28;20187;-87
2023/11/13 01:59:44;;;;;;;0.30;0.20;;;7.00;99.90;;;;;;5107987;28;20204;-77
2023/11/13 02:02:10;;;;;;;0.30;0.20;;;6.90;99.90;;;;;;5106901;28;20680;-87
2023/11/13 02:04:36;;;;;;;0.30;0.20;;;6.90;99.90;;;;;;5108134;28;20202;-77
2023/11/13 02:07:04;;;;;;;0.30;0.20;;;6.90;99.90;;;;;;5106910;28;20917;-77
2023/11/13 02:09:30;;;;;;;0.30;0.20;;;6.90;99.90;;;;;;5106755;28;20222;-89
2023/11/13 02:11:57;;;;;;;0.30;0.20;;;7.00;99.90;;;;;;5107022;28;20171;-87
2023/11/13 02:14:23;;;;;;;0.30;0.20;;;7.00;99.90;;;;;;5108037;28;20458;-88
2023/11/13 02:16:49;;;;;;;0.30;0.20;;;7.00;99.90;;;;;;5106879;28;20187;-77
2023/11/13 02:19:18;;;;;;;0.30;0.20;;;7.00;99.90;;;;;;5107661;28;20194;-78
2023/11/13 02:21:44;;;;;;;0.30;0.30;;;7.10;99.90;;;;;;5106392;28;20270;-78
2023/11/13 02:24:12;;;;;;;3.30;3.20;;;7.10;99.90;;;;;;5108077;28;20775;-87
2023/11/13 02:26:37;;;;;;;0.30;0.20;;;7.10;99.90;;;;;;5108500;28;20473;-77
2023/11/13 02:29:03;;;;;;;1.03;1.00;;;7.10;99.90;;;;;;5107153;28;20196;-78
2023/11/13 02:31:29;;;;;;;0.30;0.20;;;7.20;99.90;;;;;;5106582;28;20202;-78
2023/11/13 02:33:55;;;;;;;0.30;0.20;;;7.20;99.90;;;;;;5107747;28;20203;-88
2023/11/13 02:36:21;;;;;;;0.30;0.30;;;7.20;99.90;;;;;;5108164;28;20542;-88
2023/11/13 02:38:47;;;;;;;1.50;1.50;;;7.30;99.90;;;;;;5107653;28;20199;-88
2023/11/13 02:41:13;;;;;;;0.30;0.20;;;7.30;99.90;;;;;;5107823;28;20267;-78
2023/11/13 02:43:39;;;;;;;0.30;0.20;;;7.30;99.90;;;;;;5106225;28;20219;-88
2023/11/13 02:46:05;;;;;;;0.30;0.20;;;7.30;99.90;;;;;;5107451;28;20215;-78
2023/11/13 02:48:32;;;;;;;0.30;0.20;;;7.30;99.90;;;;;;5107406;27;20196;-88
2023/11/13 02:50:58;;;;;;;0.30;0.20;;;7.30;99.90;;;;;;5107158;28;20714;-88
2023/11/13 02:53:24;;;;;;;0.30;0.20;;;7.30;99.90;;;;;;5107231;28;20223;-87
2023/11/13 02:55:51;;;;;;;0.30;0.20;;;7.30;99.90;;;;;;5107318;28;20206;-78
2023/11/13 02:58:17;;;;;;;0.30;0.20;;;7.30;99.90;;;;;;5105833;28;20545;-88
2023/11/13 03:00:43;;;;;;;0.30;0.20;;;7.30;99.90;;;;;;5107443;28;20648;-88
2023/11/13 03:03:10;;;;;;;0.30;0.20;;;7.20;99.90;;;;;;5107340;28;20213;-88
2023/11/13 03:05:36;;;;;;;0.30;0.20;;;7.20;99.90;;;;;;5107579;28;20179;-88
2023/11/13 03:08:01;;;;;;;0.30;0.20;;;7.30;99.90;;;;;;5107930;28;20279;-88
2023/11/13 03:10:27;;;;;;;0.30;0.20;;;7.30;99.90;;;;;;5107363;28;20232;-78
2023/11/13 03:12:53;;;;;;;0.30;0.20;;;7.30;99.90;;;;;;5105172;28;20423;-78
2023/11/13 03:15:18;;;;;;;0.30;0.20;;;7.30;99.90;;;;;;5105605;28;20254;-78
2023/11/13 03:17:44;;;;;;;0.30;0.20;;;7.30;99.90;;;;;;5106294;28;20204;-78
2023/11/13 03:20:10;;;;;;;0.30;0.20;;;7.30;99.90;;;;;;5105370;28;20215;-87
2023/11/13 03:22:36;;;;;;;0.30;0.20;;;7.20;99.90;;;;;;5106346;28;20459;-81
2023/11/13 03:25:04;;;;;;;0.30;0.20;;;7.20;99.90;;;;;;5106604;28;20220;-78
2023/11/13 03:27:29;;;;;;;0.30;0.20;;;7.10;99.90;;;;;;5106514;28;20177;-78
2023/11/13 03:29:57;;;;;;;0.30;0.20;;;7.10;99.90;;;;;;5105966;28;20286;-88
2023/11/13 03:32:24;;;;;;;0.30;0.20;;;7.00;99.90;;;;;;5105780;28;20551;-77
2023/11/13 03:34:49;;;;;;;0.30;0.20;;;6.90;99.90;;;;;;5105354;28;20203;-78
2023/11/13 03:37:15;;;;;;;0.30;0.20;;;6.90;99.90;;;;;;5106853;28;20171;-78
2023/11/13 03:39:41;;;;;;;0.30;0.20;;;6.90;99.90;;;;;;5106391;28;20187;-88
2023/11/13 03:42:08;;;;;;;0.30;0.20;;;6.90;99.90;;;;;;5104873;28;20306;-78
2023/11/13 03:44:35;;;;;;;0.30;0.20;;;6.90;99.90;;;;;;5105255;28;20196;-77
2023/11/13 03:47:00;;;;;;;0.30;0.20;;;7.00;99.90;;;;;;5106377;28;20194;-87
2023/11/13 03:49:26;;;;;;;0.30;0.30;;;7.00;99.90;;;;;;5108260;28;20459;-77
2023/11/13 03:51:52;;;;;;;0.30;0.20;;;7.00;99.90;;;;;;5107411;28;20174;-83
2023/11/13 03:54:18;;;;;;;0.30;0.20;;;7.10;99.90;;;;;;5105020;28;20581;-89
2023/11/13 03:56:44;;;;;;;0.30;0.20;;;7.10;99.90;;;;;;5107595;28;20477;-87
2023/11/13 03:59:09;;;;;;;0.30;0.20;;;7.10;99.90;;;;;;5106453;28;20459;-87
2023/11/13 04:01:35;;;;;;;0.30;0.20;;;7.10;99.90;;;;;;5107875;28;20462;-87
2023/11/13 04:04:01;;;;;;;0.30;0.20;;;7.10;99.90;;;;;;5107239;28;20486;-77
2023/11/13 04:06:27;;;;;;;0.30;0.20;;;7.10;99.90;;;;;;5110611;28;20203;-77
2023/11/13 04:08:53;;;;;;;0.30;0.30;;;7.10;99.90;;;;;;5110434;27;20250;-77
2023/11/13 04:11:19;;;;;;;0.30;0.20;;;7.20;99.90;;;;;;5109283;28;20407;-77
2023/11/13 04:13:44;;;;;;;0.30;0.20;;;7.20;99.90;;;;;;5110438;28;20188;-86
2023/11/13 04:16:11;;;;;;;0.30;0.20;;;7.20;99.90;;;;;;5110469;28;20230;-77
2023/11/13 04:18:36;;;;;;;0.40;0.30;;;7.30;99.90;;;;;;5110468;28;20440;-78
2023/11/13 04:21:04;;;;;;;0.30;0.20;;;7.30;99.90;;;;;;5108515;28;20437;-87
2023/11/13 04:23:30;;;;;;;0.30;0.20;;;7.30;99.90;;;;;;5110423;28;20471;-87
2023/11/13 04:25:56;;;;;;;0.30;0.20;;;7.30;99.90;;;;;;5108838;28;20248;-77
2023/11/13 04:28:22;;;;;;;0.30;0.28;;;7.30;99.90;;;;;;5110646;28;20488;-77
2023/11/13 04:30:48;;;;;;;0.30;0.20;;;7.30;99.90;;;;;;5109271;28;20683;-88
2023/11/13 04:33:13;;;;;;;0.30;0.20;;;7.30;99.90;;;;;;5109709;28;20325;-88
2023/11/13 04:35:39;;;;;;;0.30;0.30;;;7.30;99.90;;;;;;5109207;28;20179;-79
2023/11/13 04:38:05;;;;;;;0.30;0.20;;;7.30;99.90;;;;;;5108152;28;20200;-77
2023/11/13 04:40:31;;;;;;;0.30;0.20;;;7.30;99.90;;;;;;5110309;28;20616;-77
2023/11/13 04:42:59;;;;;;;0.30;0.20;;;7.30;99.90;;;;;;5107824;28;20215;-77
2023/11/13 04:45:25;;;;;;;0.30;0.20;;;7.30;99.90;;;;;;5108392;28;20252;-77
2023/11/13 04:47:51;;;;;;;0.30;0.20;;;7.30;99.90;;;;;;5110020;28;20323;-77
2023/11/13 04:50:18;;;;;;;0.30;0.30;;;7.30;99.90;;;;;;5109991;28;20215;-78
2023/11/13 04:52:44;;;;;;;0.30;0.20;;;7.30;99.90;;;;;;5108984;28;20450;-77
2023/11/13 04:55:10;;;;;;;0.30;0.20;;;7.20;99.90;;;;;;5108633;28;20430;-77
2023/11/13 04:57:36;;;;;;;0.30;0.20;;;7.20;99.90;;;;;;5108912;28;20379;-88
2023/11/13 05:00:05;;;;;;;0.30;0.30;;;7.20;99.90;;;;;;5109703;28;20668;-87
2023/11/13 05:02:31;;;;;;;0.30;0.20;;;7.20;99.90;;;;;;5109770;28;20231;-87
2023/11/13 05:04:57;;;;;;;0.30;0.20;;;7.20;99.90;;;;;;5109165;28;20199;-88
2023/11/13 05:07:23;;;;;;;0.30;0.20;;;7.20;99.90;;;;;;5108099;28;20163;-77
2023/11/13 05:09:49;;;;;;;0.30;0.20;;;7.20;99.90;;;;;;5109050;27;20769;-77
2023/11/13 05:12:15;;;;;;;0.30;0.30;;;7.20;99.90;;;;;;5106577;28;20184;-78
2023/11/13 05:14:41;;;;;;;0.30;0.20;;;7.20;99.90;;;;;;5108441;28;20304;-88
2023/11/13 05:17:08;;;;;;;0.30;0.20;;;7.20;99.90;;;;;;5108514;28;20254;-78
2023/11/13 05:19:33;;;;;;;0.30;0.20;;;7.20;99.90;;;;;;5109054;28;20188;-77
2023/11/13 05:21:59;;;;;;;0.30;0.20;;;7.20;99.90;;;;;;5108421;28;20588;-77
2023/11/13 05:24:26;;;;;;;0.30;0.20;;;7.20;99.90;;;;;;5107251;28;20445;-88
2023/11/13 05:26:52;;;;;;;0.30;0.20;;;7.20;99.90;;;;;;5109004;28;20668;-87
2023/11/13 05:29:18;;;;;;;0.30;0.20;;;7.20;99.90;;;;;;5106209;28;20203;-88
2023/11/13 05:31:43;;;;;;;0.30;0.20;;;7.30;99.90;;;;;;5099830;28;20187;-77
2023/11/13 05:34:09;;;;;;;0.30;0.20;;;7.30;99.90;;;;;;5098099;28;20633;-78
2023/11/13 05:36:36;;;;;;;0.67;0.63;;;7.30;99.90;;;;;;5101878;27;20312;-78
2023/11/13 05:39:01;;;;;;;0.30;0.20;;;7.30;99.90;;;;;;5099405;28;20485;-89
2023/11/13 05:41:28;;;;;;;0.30;0.20;;;7.30;99.90;;;;;;5097487;28;20276;-77
2023/11/13 05:43:55;;;;;;;0.30;0.20;;;7.20;99.90;;;;;;5099381;27;20407;-88
2023/11/13 05:46:21;;;;;;;0.30;0.20;;;7.20;99.90;;;;;;5096701;28;20169;-87
2023/11/13 05:48:47;;;;;;;0.30;0.20;;;7.30;99.90;;;;;;5099397;28;20570;-88
2023/11/13 05:51:14;;;;;;;0.30;0.23;;;7.30;99.90;;;;;;5102572;28;20270;-77
2023/11/13 05:53:40;;;;;;;0.30;0.20;;;7.40;99.90;;;;;;5097572;28;20226;-78
2023/11/13 05:56:06;;;;;;;0.30;0.20;;;7.40;99.90;;;;;;5123914;27;20625;-78
2023/11/13 05:58:32;;;;;;;0.30;0.20;;;7.50;99.90;;;;;;5100105;28;20466;-88
2023/11/13 06:00:58;;;;;;;0.30;0.20;;;7.50;99.90;;;;;;5097439;28;20184;-77
2023/11/13 06:03:23;;;;;;;0.30;0.20;;;7.50;99.90;;;;;;5097672;28;20396;-87
2023/11/13 06:05:50;;;;;;;0.30;0.20;;;7.50;99.90;;;;;;5094038;28;20974;-79
2023/11/13 06:08:15;;;;;;;0.30;0.20;;;7.50;99.90;;;;;;5096115;28;20404;-77
2023/11/13 06:10:41;;;;;;;0.37;0.20;;;7.40;99.90;;;;;;5099457;28;20180;-76
2023/11/13 06:13:07;;;;;;;0.30;0.20;;;7.40;99.90;;;;;;5097416;28;20225;-76
2023/11/13 06:15:37;;;;;;;0.30;0.20;;;7.40;99.90;;;;;;5093850;28;20551;-76
2023/11/13 06:18:03;;;;;;;0.30;0.20;;;7.40;99.90;;;;;;5098797;28;20715;-87
2023/11/13 06:20:28;;;;;;;7.23;6.80;;;7.40;99.90;;;;;;5104816;28;20241;-77
2023/11/13 06:22:54;;;;;;;50.90;15.30;;;7.40;99.90;;;;;;5125859;27;20445;-88
2023/11/13 06:25:21;;;;;;;0.30;0.20;;;7.40;99.90;;;;;;5097546;28;20444;-87
2023/11/13 06:27:46;;;;;;;0.30;0.20;;;7.40;99.90;;;;;;5098440;28;20758;-88
2023/11/13 06:30:12;;;;;;;0.30;0.20;;;7.50;99.90;;;;;;5106332;28;20184;-87
2023/11/13 06:32:39;;;;;;;0.30;0.20;;;7.40;99.90;;;;;;5102067;28;20348;-78
2023/11/13 06:35:05;;;;;;;0.30;0.20;;;7.40;99.90;;;;;;5101166;28;20569;-78
2023/11/13 06:37:31;;;;;;;0.30;0.20;;;7.30;99.90;;;;;;5095789;28;20539;-88
2023/11/13 06:39:58;;;;;;;0.30;0.20;;;7.30;99.90;;;;;;5092797;28;20295;-88
2023/11/13 06:42:24;;;;;;;0.30;0.20;;;7.30;99.90;;;;;;5098234;28;20226;-88
2023/11/13 06:44:50;;;;;;;0.30;0.20;;;7.40;99.90;;;;;;5094978;28;20294;-88
2023/11/13 06:47:16;;;;;;;0.30;0.20;;;7.30;99.90;;;;;;5092557;28;20267;-78
2023/11/13 06:49:42;;;;;;;0.30;0.20;;;7.30;99.90;;;;;;5123014;27;20290;-88
2023/11/13 06:52:08;;;;;;;3.43;3.33;;;7.20;99.90;;;;;;5120688;27;20577;-77
2023/11/13 06:54:35;;;;;;;0.30;0.20;;;7.30;99.90;;;;;;5127101;27;20194;-89
2023/11/13 06:57:01;;;;;;;0.30;0.20;;;7.30;99.90;;;;;;5099053;28;20180;-77
2023/11/13 06:59:28;;;;;;;0.30;0.20;;;7.40;99.90;;;;;;5099166;28;20195;-89
2023/11/13 07:01:55;;;;;;;0.30;0.20;;;7.40;99.90;;;;;;5091200;28;20184;-77
2023/11/13 07:04:21;;;;;;;0.30;0.20;;;7.40;99.90;;;;;;5072402;28;20231;-78
2023/11/13 07:06:46;;;;;;;0.30;0.20;;;7.50;99.90;;;;;;5087438;28;20844;-79
2023/11/13 07:09:12;;;;;;;0.30;0.20;;;7.50;99.90;;;;;;5092370;28;20279;-77
2023/11/13 07:11:42;;;;;;;0.30;0.20;;;7.50;99.90;;;;;;5089543;28;20673;-87
2023/11/13 07:14:12;;;;;;;0.30;0.25;;;7.60;99.90;;;;;;5092437;28;20872;-79
2023/11/13 07:16:38;;;;;;;0.30;0.20;;;7.60;99.90;;;;;;5088195;28;20429;-88
2023/11/13 07:19:04;;;;;;;0.30;0.20;;;7.50;99.90;;;;;;5088031;28;20200;-89
2023/11/13 07:21:31;;;;;;;0.30;0.20;;;7.50;99.90;;;;;;5085559;28;20180;-77
2023/11/13 07:23:58;;;;;;;0.40;0.40;;;7.50;99.90;;;;;;5082876;28;20487;-77
2023/11/13 07:26:30;;;;;;;1.40;1.30;;;7.50;99.90;;;;;;5100277;28;20176;-77
2023/11/13 07:28:55;;;;;;;0.30;0.20;;;7.40;99.90;;;;;;5099564;28;20253;-88
2023/11/13 07:31:22;;;;;;;0.30;0.20;;;7.50;99.90;;;;;;5102099;28;20826;-77
2023/11/13 07:33:49;;;;;;;0.30;0.20;;;7.50;99.90;;;;;;5101868;28;20187;-77
2023/11/13 07:36:15;;;;;;;0.75;0.75;;;7.50;99.90;;;;;;5101906;28;20481;-78
2023/11/13 07:38:43;;;;;;;0.60;0.60;;;7.60;99.90;;;;;;5103716;28;20199;-89
2023/11/13 07:41:11;;;;;;;0.30;0.20;;;7.60;99.90;;;;;;5101397;28;20435;-88
2023/11/13 07:43:44;;;;;;;0.30;0.20;;;7.60;99.90;;;;;;5098565;28;20216;-77
2023/11/13 07:46:14;;;;;;;0.30;0.20;;;7.60;99.90;;;;;;5092743;28;20271;-78
2023/11/13 07:48:40;;;;;;;0.30;0.20;;;7.60;99.90;;;;;;5094647;28;20720;-77
2023/11/13 07:51:07;;;;;;;0.30;0.20;;;7.60;99.90;;;;;;5094307;28;20579;-88
2023/11/13 07:53:35;;;;;;;0.30;0.20;;;7.70;99.90;;;;;;5090321;28;20266;-78
2023/11/13 07:56:01;;;;;;;0.30;0.20;;;7.70;99.90;;;;;;5096064;28;20637;-78
2023/11/13 07:58:27;;;;;;;0.30;0.20;;;7.70;99.90;;;;;;5095657;28;20242;-77
2023/11/13 08:00:53;;;;;;;0.30;0.20;;;7.70;99.90;;;;;;5097876;28;20184;-77
2023/11/13 08:03:20;;;;;;;0.30;0.30;;;7.80;99.90;;;;;;5090198;28;20620;-88
2023/11/13 08:05:47;;;;;;;0.30;0.20;;;7.90;99.90;;;;;;5094269;28;20436;-88
2023/11/13 08:08:15;;;;;;;0.30;0.20;;;7.90;99.90;;;;;;5127417;27;20725;-79
2023/11/13 08:10:51;;;;;;;0.30;0.22;;;8.00;99.90;;;;;;5101669;28;20180;-88
2023/11/13 08:13:21;;;;;;;0.30;0.20;;;8.10;99.90;;;;;;5118531;27;20194;-88
2023/11/13 08:15:50;;;;;;;0.30;0.20;;;8.20;99.90;;;;;;5113235;28;20239;-88
2023/11/13 08:18:16;;;;;;;0.30;0.20;;;8.20;99.90;;;;;;5098442;28;20214;-89
2023/11/13 08:20:43;;;;;;;0.30;0.20;;;8.20;99.90;;;;;;5099548;28;20648;-78
2023/11/13 08:23:10;;;;;;;0.40;0.40;;;8.30;99.90;;;;;;5116350;27;20223;-89
2023/11/13 08:25:42;;;;;;;0.30;0.20;;;8.40;99.90;;;;;;5102180;28;20421;-88
2023/11/13 08:28:09;;;;;;;0.30;0.20;;;8.40;99.90;;;;;;5101406;28;20192;-77
2023/11/13 08:30:35;;;;;;;0.30;0.20;;;8.30;99.90;;;;;;5100238;28;20316;-77
2023/11/13 08:33:02;;;;;;;0.30;0.20;;;8.30;99.90;;;;;;5098170;28;20196;-87
2023/11/13 08:35:31;;;;;;;0.30;0.20;;;8.30;99.90;;;;;;5096440;28;20184;-78
2023/11/13 08:37:58;;;;;;;0.30;0.20;;;8.30;99.90;;;;;;5093625;28;20687;-79
2023/11/13 08:40:24;;;;;;;0.30;0.20;;;8.40;99.90;;;;;;5093945;28;20528;-78
2023/11/13 08:42:50;;;;;;;0.30;0.20;;;8.40;99.90;;;;;;5095742;28;20318;-78
2023/11/13 08:45:16;;;;;;;0.30;0.20;;;8.50;99.90;;;;;;5097233;28;20527;-90
2023/11/13 08:47:43;;;;;;;4.73;4.47;;;8.60;99.90;;;;;;5096213;28;20267;-89
2023/11/13 08:50:11;;;;;;;0.30;0.30;;;8.60;99.90;;;;;;5096473;27;20222;-89
2023/11/13 08:52:39;;;;;;;0.43;0.43;;;8.70;99.90;;;;;;5103676;28;20183;-89
2023/11/13 08:55:05;;;;;;;0.50;0.50;;;8.70;99.90;;;;;;5105211;28;21745;-90
2023/11/13 08:57:33;;;;;;;0.30;0.20;;;8.70;99.90;;;;;;5102523;28;20176;-89
2023/11/13 08:59:59;;;;;;;0.30;0.30;;;8.80;99.90;;;;;;5103709;28;20203;-86
2023/11/13 09:02:25;;;;;;;0.30;0.20;;;8.90;99.90;;;;;;5110049;27;20204;-89
2023/11/13 09:04:52;;;;;;;0.47;0.47;;;9.10;99.90;;;;;;5102455;28;20214;-78
2023/11/13 09:07:18;;;;;;;0.30;0.30;;;9.20;99.90;;;;;;5094954;28;20172;-88
2023/11/13 09:09:44;;;;;;;0.30;0.20;;;9.40;99.90;;;;;;5108111;27;20255;-77
2023/11/13 09:12:12;;;;;;;0.30;0.20;;;9.60;99.90;;;;;;5097678;28;20956;-80
2023/11/13 09:14:39;;;;;;;0.30;0.20;;;9.80;99.90;;;;;;5116414;27;20722;-78
2023/11/13 09:17:12;;;;;;;0.30;0.20;;;9.90;99.90;;;;;;5099893;28;20180;-77
2023/11/13 09:19:40;;;;;;;0.30;0.20;;;10.10;99.90;;;;;;5100879;28;20219;-77
2023/11/13 09:22:12;;;;;;;6.65;6.10;;;10.30;99.90;;;;;;5099942;28;20199;-77
2023/11/13 09:24:41;;;;;;;0.40;0.20;;;10.40;99.90;;;;;;5094155;28;20690;-88
2023/11/13 09:27:10;;;;;;;0.30;0.20;;;10.60;99.90;;;;;;5101059;28;20176;-78
2023/11/13 09:29:40;;;;;;;0.65;0.65;;;10.90;99.90;;;;;;5099597;28;20195;-88
2023/11/13 09:32:08;;;;;;;0.30;0.20;;;11.00;99.90;;;;;;5103961;27;20187;-88
2023/11/13 09:34:35;;;;;;;3.33;3.13;;;11.10;99.90;;;;;;5092281;28;20284;-88
2023/11/13 09:37:04;;;;;;;0.30;0.20;;;11.10;99.90;;;;;;5098264;28;20179;-87
2023/11/13 09:39:32;;;;;;;0.38;0.20;;;11.30;99.90;;;;;;5106892;27;20220;-78
2023/11/13 09:42:03;;;;;;;1.10;1.10;;;11.60;99.90;;;;;;5099650;28;20172;-78
2023/11/13 09:44:31;;;;;;;0.30;0.20;;;11.80;99.90;;;;;;5102352;28;20206;-88
2023/11/13 09:46:59;;;;;;;40.67;36.65;;;11.90;99.90;;;;;;5100196;28;20535;-78
2023/11/13 09:49:30;;;;;;;0.30;0.20;;;11.90;99.90;;;;;;5100033;28;20357;-88
2023/11/13 09:52:02;;;;;;;1.02;1.02;;;12.00;99.90;;;;;;5098291;28;20517;-79
2023/11/13 09:54:30;;;;;;;0.63;0.63;;;12.00;99.90;;;;;;5099353;28;20327;-79
2023/11/13 09:57:00;;;;;;;0.30;0.20;;;12.10;99.90;;;;;;5097733;28;20190;-78
2023/11/13 09:59:34;;;;;;;0.40;0.40;;;12.20;99.90;;;;;;5096395;28;20781;-77
2023/11/13 10:02:00;;;;;;;0.30;0.20;;;12.20;99.90;;;;;;5096454;28;20190;-78
2023/11/13 10:04:28;;;;;;;0.53;0.53;;;12.20;99.90;;;;;;5098699;28;20204;-87
2023/11/13 10:06:57;;;;;;;1.25;1.25;;;12.30;99.90;;;;;;5093244;28;20544;-78
2023/11/13 10:09:26;;;;;;;0.50;0.50;;;12.30;99.90;;;;;;5093077;28;20203;-78
2023/11/13 10:11:53;;;;;;;0.55;0.55;;;12.30;99.90;;;;;;5090816;28;20834;-88
2023/11/13 10:14:19;;;;;;;0.30;0.20;;;12.30;99.90;;;;;;5096555;28;20211;-89
2023/11/13 10:17:00;;;;;;;1.67;1.57;;;12.30;99.90;;;;;;5098098;28;20249;-77
2023/11/13 10:19:26;;;;;;;2.92;2.78;;;12.30;99.90;;;;;;5104109;28;20634;-78
2023/11/13 10:21:54;;;;;;;0.30;0.30;;;12.30;99.90;;;;;;5102502;28;20207;-79
2023/11/13 10:24:25;;;;;;;1.50;1.38;;;12.30;99.90;;;;;;5102346;28;20306;-78
2023/11/13 10:26:52;;;;;;;0.30;0.20;;;12.40;99.90;;;;;;5103180;28;20195;-93
2023/11/13 10:29:22;;;;;;;2.55;2.45;;;12.40;99.90;;;;;;5098152;28;20319;-90
2023/11/13 10:31:52;;;;;;;3.03;2.30;;;12.50;99.90;;;;;;5074303;28;20416;-81
2023/11/13 10:34:22;;;;;;;0.30;0.30;;;12.50;99.90;;;;;;5101413;28;20905;-80
2023/11/13 10:37:08;;;;;;;0.70;0.70;;;12.50;99.90;;;;;;5106024;27;20219;-90
2023/11/13 10:39:36;;;;;;;0.47;0.47;;;12.50;99.90;;;;;;5102269;28;20479;-87
2023/11/13 10:42:05;;;;;;;1.00;1.00;;;12.60;99.90;;;;;;5103851;28;20447;-93
2023/11/13 10:44:36;;;;;;;0.53;0.50;;;12.60;99.90;;;;;;5114746;27;20454;-87
2023/11/13 10:47:21;;;;;;;0.82;0.77;;;12.70;99.90;;;;;;5101042;28;21003;-84
2023/11/13 10:49:52;;;;;;;0.40;0.40;;;12.80;99.90;;;;;;5104025;28;20192;-85
2023/11/13 10:52:22;;;;;;;0.30;0.20;;;12.80;99.90;;;;;;5090467;28;20444;-78
2023/11/13 10:54:50;;;;;;;3.40;2.53;;;12.90;99.90;;;;;;5102611;28;20531;-80
2023/11/13 10:57:17;;;;;;;6.27;4.20;;;12.90;99.90;;;;;;5101785;28;20530;-82
2023/11/13 10:59:46;;;;;;;0.30;0.20;;;13.00;99.90;;;;;;5100609;28;20444;-80
2023/11/13 11:02:35;;;;;;;1.03;1.03;;;13.10;99.90;;;;;;5097881;28;20510;-81
2023/11/13 11:05:10;;;;;;;0.30;0.20;;;13.10;99.90;;;;;;5112526;27;20495;-80
2023/11/13 11:07:38;;;;;;;0.40;0.20;;;13.20;99.90;;;;;;5093958;28;21070;-80
2023/11/13 11:10:07;;;;;;;2.57;2.07;;;13.20;99.90;;;;;;5093428;28;20499;-80
2023/11/13 11:12:43;;;;;;;0.57;0.57;;;13.30;99.90;;;;;;5087982;28;20436;-81
2023/11/13 11:15:15;;;;;;;0.30;0.30;;;13.40;99.90;;;;;;5094890;28;20483;-81
2023/11/13 11:17:49;;;;;;;0.30;0.20;;;13.40;99.90;;;;;;5086312;28;20451;-79
2023/11/13 11:20:26;;;;;;;2.97;2.87;;;13.40;99.90;;;;;;5108624;27;20431;-80
2023/11/13 11:22:58;;;;;;;0.30;0.30;;;13.50;99.90;;;;;;5097047;28;20514;-80
2023/11/13 11:25:44;;;;;;;0.30;0.20;;;13.60;99.90;;;;;;5098657;28;20408;-80
2023/11/13 11:28:44;;;;;;;0.90;0.90;;;13.60;99.90;;;;;;5094418;28;20555;-82
2023/11/13 11:31:39;;;;;;;0.30;0.20;;;13.70;99.90;;;;;;5093423;28;20792;-79
2023/11/13 11:34:06;;;;;;;1.17;0.83;;;13.70;99.90;;;;;;5112467;27;20486;-78
2023/11/13 11:36:37;;;;;;;0.30;0.20;;;13.70;99.90;;;;;;5084204;28;20423;-79
2023/11/13 11:39:21;;;;;;;0.30;0.20;;;13.60;99.90;;;;;;5082860;28;20478;-78
2023/11/13 11:41:52;;;;;;;0.70;0.70;;;13.50;99.90;;;;;;5082205;28;20535;-78
2023/11/13 11:44:21;;;;;;;1.73;0.87;;;13.50;99.90;;;;;;5086905;28;20495;-78
2023/11/13 11:46:51;;;;;;;0.30;0.20;;;13.50;99.90;;;;;;5088706;28;20477;-79
2023/11/13 11:49:24;;;;;;;0.30;0.20;;;13.60;99.90;;;;;;5089325;28;20522;-77
2023/11/13 11:51:51;;;;;;;0.80;0.80;;;13.70;99.90;;;;;;5091161;28;21009;-77
2023/11/13 11:54:17;;;;;;;9.30;2.50;;;13.70;99.90;;;;;;5093653;28;20437;-77
2023/11/13 11:57:03;;;;;;;0.40;0.20;;;13.70;99.90;;;;;;5118180;27;20428;-77
2023/11/13 11:59:30;;;;;;;0.67;0.67;;;13.80;99.90;;;;;;5090682;28;20211;-77
2023/11/13 12:01:57;;;;;;;0.30;0.20;;;13.80;99.90;;;;;;5091790;28;20435;-77
2023/11/13 12:04:23;;;;;;;0.30;0.20;;;13.80;99.90;;;;;;5090759;28;20835;-77
2023/11/13 12:06:51;;;;;;;2.80;2.60;;;13.80;99.90;;;;;;5090888;28;20491;-77
2023/11/13 12:09:17;;;;;;;0.30;0.20;;;13.80;99.90;;;;;;5086498;28;20436;-77
2023/11/13 12:11:45;;;;;;;0.30;0.20;;;13.80;99.90;;;;;;5091466;28;20499;-77
2023/11/13 12:14:11;;;;;;;0.30;0.20;;;13.80;99.90;;;;;;5088788;28;20437;-78
2023/11/13 12:16:36;;;;;;;0.77;0.77;;;13.80;99.90;;;;;;5091338;28;20489;-77
2023/11/13 12:19:02;;;;;;;0.93;0.87;;;13.80;99.90;;;;;;5090497;28;20787;-78
2023/11/13 12:21:28;;;;;;;0.70;0.67;;;13.80;99.90;;;;;;5095325;28;20552;-77
2023/11/13 12:23:55;;;;;;;0.30;0.20;;;13.70;99.90;;;;;;5094740;28;20639;-78
2023/11/13 12:26:21;;;;;;;0.30;0.20;;;13.80;99.90;;;;;;5095282;28;20397;-78
2023/11/13 12:28:49;;;;;;;0.30;0.20;;;13.80;99.90;;;;;;5094605;28;20514;-77
2023/11/13 12:31:19;;;;;;;0.30;0.20;;;13.80;99.90;;;;;;5092483;28;20180;-77
2023/11/13 12:33:45;;;;;;;0.30;0.30;;;13.80;99.90;;;;;;5090471;28;20475;-77
2023/11/13 12:36:18;;;;;;;0.30;0.20;;;13.80;99.90;;;;;;5097184;28;20883;-78
2023/11/13 12:38:44;;;;;;;0.37;0.20;;;13.90;99.90;;;;;;5093764;28;20483;-78
2023/11/13 12:41:12;;;;;;;0.30;0.20;;;14.00;99.90;;;;;;5095493;28;20415;-79
2023/11/13 12:43:38;;;;;;;0.50;0.50;;;14.10;99.90;;;;;;5093998;28;20487;-78
2023/11/13 12:46:05;;;;;;;0.83;0.83;;;14.10;99.90;;;;;;5091690;28;20968;-78
2023/11/13 12:48:30;;;;;;;0.30;0.20;;;14.20;99.90;;;;;;5091055;28;20443;-78
2023/11/13 12:51:05;;;;;;;0.30;0.20;;;14.10;99.90;;;;;;5091445;28;20427;-78
2023/11/13 12:53:34;;;;;;;0.40;0.40;;;14.10;99.90;;;;;;5085810;28;20222;-78